Time;durP1;ratioP1;P1;durP2;ratioP2;P2;SDS_P1;SDS_P2;PMS_P1;PMS_P2;Temp;Humidity;BMP_temperature;BMP_pressure;BME280_temperature;BME280_humidity;BME280_pressure;Samples;Min_cycle;Max_cycle;Signal;HPM_P1;HPM_P2
2024/01/09 00:01:28;;;;;;;16.73;15.47;;;;;;;0.34;99.98;92626.22;5043258;28;20241;-73
2024/01/09 00:03:54;;;;;;;18.73;16.73;;;;;;;0.13;100.00;92635.13;5064498;28;20185;-73
2024/01/09 00:06:20;;;;;;;16.87;15.43;;;;;;;0.15;100.00;92622.88;5056402;28;20182;-74
2024/01/09 00:08:45;;;;;;;16.87;15.33;;;;;;;-0.10;100.00;92637.56;5070421;28;20233;-73
2024/01/09 00:11:14;;;;;;;18.50;16.63;;;;;;;0.61;100.00;92637.72;5060762;28;20196;-73
2024/01/09 00:13:40;;;;;;;15.23;14.03;;;;;;;0.33;100.00;92645.97;5059966;28;20214;-73
2024/01/09 00:16:06;;;;;;;15.37;14.17;;;;;;;0.54;100.00;92658.34;5067772;28;20200;-72
2024/01/09 00:18:31;;;;;;;16.80;15.37;;;;;;;0.56;100.00;92658.13;5060356;28;20239;-72
2024/01/09 00:20:57;;;;;;;15.80;14.53;;;;;;;0.79;99.91;92647.94;5056631;28;20217;-73
2024/01/09 00:23:22;;;;;;;17.40;16.00;;;;;;;0.44;99.31;92647.78;5059006;28;20226;-73
2024/01/09 00:25:47;;;;;;;16.63;15.33;;;;;;;0.42;99.92;92657.50;5049488;28;20174;-73
2024/01/09 00:28:13;;;;;;;17.30;15.87;;;;;;;0.40;99.81;92654.38;5043264;28;20237;-73
2024/01/09 00:30:38;;;;;;;17.70;15.83;;;;;;;0.43;99.86;92660.84;5038579;28;20242;-72
2024/01/09 00:33:04;;;;;;;16.07;14.57;;;;;;;0.45;99.80;92659.63;5044159;28;20226;-73
2024/01/09 00:35:29;;;;;;;16.60;15.30;;;;;;;0.49;99.83;92663.34;5048578;28;20251;-74
2024/01/09 00:37:54;;;;;;;16.10;14.87;;;;;;;0.66;99.57;92672.00;5053084;28;20240;-74
2024/01/09 00:40:20;;;;;;;15.70;14.47;;;;;;;0.41;99.71;92668.78;5063140;28;20196;-75
2024/01/09 00:42:45;;;;;;;16.17;14.90;;;;;;;0.17;100.00;92661.16;5062636;28;20242;-74
2024/01/09 00:45:10;;;;;;;17.87;16.33;;;;;;;0.40;99.46;92667.22;5071389;28;20196;-75
2024/01/09 00:47:36;;;;;;;17.00;15.60;;;;;;;0.67;98.84;92678.72;5069695;28;20214;-74
2024/01/09 00:50:01;;;;;;;15.70;14.30;;;;;;;0.81;98.04;92679.34;5068043;28;20192;-74
2024/01/09 00:52:27;;;;;;;14.90;13.40;;;;;;;0.31;99.18;92667.72;5057504;28;20209;-75
2024/01/09 00:54:52;;;;;;;16.40;14.90;;;;;;;0.44;99.01;92668.34;5044255;28;20197;-74
2024/01/09 00:57:17;;;;;;;16.73;15.33;;;;;;;0.57;98.42;92665.63;5040154;28;20222;-75
2024/01/09 00:59:43;;;;;;;16.60;15.30;;;;;;;0.29;98.77;92675.63;5050295;28;20281;-74
2024/01/09 01:02:08;;;;;;;16.50;15.00;;;;;;;0.53;98.66;92671.41;5047920;28;20246;-75
2024/01/09 01:04:37;;;;;;;16.50;15.10;;;;;;;0.70;98.37;92688.56;5043434;28;20178;-74
2024/01/09 01:07:02;;;;;;;16.50;15.13;;;;;;;0.82;97.82;92691.19;5047532;28;20222;-74
2024/01/09 01:09:28;;;;;;;17.63;16.03;;;;;;;0.59;97.73;92694.41;5038268;28;20844;-75
2024/01/09 01:11:53;;;;;;;16.87;15.43;;;;;;;0.71;98.18;92690.13;5045454;28;20253;-75
2024/01/09 01:14:18;;;;;;;16.97;15.47;;;;;;;0.28;98.77;92684.31;5047326;28;20194;-75
2024/01/09 01:16:44;;;;;;;15.83;14.40;;;;;;;0.57;98.30;92699.00;5041950;28;20234;-75
2024/01/09 01:19:09;;;;;;;17.17;15.47;;;;;;;0.91;97.93;92700.16;5070216;28;20268;-75
2024/01/09 01:21:34;;;;;;;15.70;14.40;;;;;;;0.75;96.92;92698.19;5063489;28;20209;-75
2024/01/09 01:24:00;;;;;;;17.73;16.17;;;;;;;0.46;98.35;92694.59;5040383;28;20182;-74
2024/01/09 01:26:25;;;;;;;15.40;14.00;;;;;;;0.77;97.69;92704.69;5049988;28;20187;-75
2024/01/09 01:28:50;;;;;;;15.63;14.33;;;;;;;0.62;96.91;92686.31;5041509;28;20193;-76
2024/01/09 01:31:16;;;;;;;16.83;15.37;;;;;;;0.69;96.53;92688.78;5042260;28;21000;-76
2024/01/09 01:33:41;;;;;;;15.43;14.13;;;;;;;0.78;96.96;92702.91;5086424;28;20251;-76
2024/01/09 01:36:12;;;;;;;14.83;13.53;;;;;;;0.76;96.99;92703.13;5055945;28;20186;-76
2024/01/09 01:38:38;;;;;;;15.00;13.73;;;;;;;0.66;96.94;92702.84;5051376;28;20229;-76
2024/01/09 01:41:03;;;;;;;14.53;13.43;;;;;;;0.44;97.39;92699.16;5049465;28;20201;-76
2024/01/09 01:43:29;;;;;;;15.67;14.50;;;;;;;0.48;97.34;92708.00;5064059;28;20238;-76
2024/01/09 01:45:54;;;;;;;15.27;14.27;;;;;;;0.64;97.55;92694.56;5060597;28;20181;-76
2024/01/09 01:48:19;;;;;;;14.50;13.40;;;;;;;0.41;96.00;92679.03;5059251;28;20217;-76
2024/01/09 01:50:45;;;;;;;14.03;13.00;;;;;;;0.37;96.64;92707.94;5061593;28;20190;-76
2024/01/09 01:53:11;;;;;;;13.10;12.13;;;;;;;0.51;96.33;92705.00;5067052;28;20240;-76
2024/01/09 01:55:36;;;;;;;13.60;12.70;;;;;;;0.54;96.24;92707.16;5065414;28;20189;-76
2024/01/09 01:58:03;;;;;;;14.53;13.60;;;;;;;0.73;96.28;92711.22;5059804;28;20221;-76
2024/01/09 02:00:30;;;;;;;15.87;14.67;;;;;;;0.67;96.17;92709.53;5070801;28;20204;-76
2024/01/09 02:02:56;;;;;;;14.60;13.50;;;;;;;0.64;96.32;92692.00;5070688;28;20316;-76
2024/01/09 02:05:24;;;;;;;14.10;12.97;;;;;;;0.08;97.42;92709.41;5064081;28;20177;-76
2024/01/09 02:07:53;;;;;;;14.13;13.07;;;;;;;0.28;96.84;92704.09;5065274;28;20221;-76
2024/01/09 02:10:19;;;;;;;14.83;13.67;;;;;;;0.53;96.44;92700.41;5063106;28;20174;-76
2024/01/09 02:12:46;;;;;;;14.80;13.77;;;;;;;0.59;95.38;92694.41;5069803;28;20264;-76
2024/01/09 02:15:12;;;;;;;13.53;12.53;;;;;;;0.62;95.44;92714.56;5062341;28;20177;-76
2024/01/09 02:17:38;;;;;;;14.47;13.37;;;;;;;0.55;95.41;92701.00;5047160;28;20222;-75
2024/01/09 02:20:07;;;;;;;12.60;11.70;;;;;;;0.40;96.76;92707.50;5044433;28;20178;-76
2024/01/09 02:22:33;;;;;;;13.37;12.50;;;;;;;0.59;95.74;92701.34;5081465;28;20228;-77
2024/01/09 02:24:58;;;;;;;13.47;12.47;;;;;;;0.63;95.72;92718.69;5048992;28;20209;-76
2024/01/09 02:27:56;;;;;;;12.67;11.90;;;;;;;0.77;95.24;92719.31;5050501;28;20251;-76
2024/01/09 02:30:23;;;;;;;14.57;13.57;;;;;;;0.78;94.94;92708.81;5043111;28;20195;-76
2024/01/09 02:32:50;;;;;;;14.03;12.90;;;;;;;0.68;94.70;92700.84;5062521;28;20249;-76
2024/01/09 02:35:15;;;;;;;14.37;13.30;;;;;;;0.47;95.79;92719.25;5057619;28;20200;-75
2024/01/09 02:37:40;;;;;;;15.33;14.23;;;;;;;0.37;96.25;92719.00;5054876;28;20230;-76
2024/01/09 02:40:07;;;;;;;16.47;15.07;;;;;;;0.46;96.81;92699.72;5078859;28;20262;-77
2024/01/09 02:42:33;;;;;;;16.50;15.20;;;;;;;0.46;96.49;92722.84;5050350;28;20222;-77
2024/01/09 02:44:58;;;;;;;16.63;15.03;;;;;;;0.46;96.11;92714.34;5067441;28;20201;-76
2024/01/09 02:47:24;;;;;;;15.07;14.07;;;;;;;0.49;96.17;92730.09;5062177;28;20240;-77
2024/01/09 02:49:49;;;;;;;16.93;15.33;;;;;;;0.15;96.97;92720.41;5069185;28;20776;-75
2024/01/09 02:52:16;;;;;;;15.10;13.77;;;;;;;0.13;96.78;92722.41;5065577;28;20226;-76
2024/01/09 02:54:41;;;;;;;16.70;15.13;;;;;;;0.28;96.67;92704.84;5068016;28;20177;-76
2024/01/09 02:57:07;;;;;;;15.30;14.00;;;;;;;0.00;98.35;92717.41;5069445;28;20225;-75
2024/01/09 02:59:32;;;;;;;16.80;15.50;;;;;;;0.38;97.81;92715.41;5060937;28;20215;-75
2024/01/09 03:01:57;;;;;;;16.57;15.03;;;;;;;0.25;98.30;92718.13;5074081;28;20232;-75
2024/01/09 03:04:23;;;;;;;15.73;14.63;;;;;;;0.09;97.74;92708.44;5069177;28;20177;-76
2024/01/09 03:06:48;;;;;;;16.23;14.93;;;;;;;0.18;98.22;92709.72;5056552;28;20281;-75
2024/01/09 03:09:13;;;;;;;15.60;14.37;;;;;;;0.45;98.11;92716.13;5069427;28;20185;-75
2024/01/09 03:11:39;;;;;;;14.43;13.23;;;;;;;0.21;97.91;92727.25;5068884;28;20280;-76
2024/01/09 03:14:04;;;;;;;14.90;13.80;;;;;;;0.06;98.02;92726.81;5069346;28;20194;-75
2024/01/09 03:16:29;;;;;;;14.57;13.57;;;;;;;-0.24;98.77;92723.34;5068469;28;20200;-75
2024/01/09 03:18:55;;;;;;;14.47;13.57;;;;;;;-0.32;99.94;92733.88;5040530;28;20206;-75
2024/01/09 03:21:21;;;;;;;13.17;12.30;;;;;;;-0.38;100.00;92727.00;5045324;28;20222;-75
2024/01/09 03:23:46;;;;;;;12.80;11.97;;;;;;;0.01;99.70;92734.38;5047076;28;20224;-76
2024/01/09 03:26:11;;;;;;;13.20;12.30;;;;;;;0.22;99.39;92731.38;5037797;28;20191;-75
2024/01/09 03:28:37;;;;;;;12.47;11.70;;;;;;;0.06;99.03;92726.81;5038010;28;20216;-76
2024/01/09 03:31:03;;;;;;;12.47;11.47;;;;;;;0.10;98.25;92725.38;5038076;28;20216;-76
2024/01/09 03:33:28;;;;;;;11.57;10.97;;;;;;;0.32;98.00;92741.16;5074497;28;20213;-75
2024/01/09 03:35:53;;;;;;;12.90;12.00;;;;;;;0.26;97.09;92742.00;5062871;28;20185;-75
2024/01/09 03:38:19;;;;;;;13.23;12.43;;;;;;;0.05;98.78;92738.06;5052494;28;20229;-76
2024/01/09 03:40:45;;;;;;;13.73;12.93;;;;;;;0.29;98.33;92737.25;5043479;28;20198;-75
2024/01/09 03:43:10;;;;;;;13.30;12.40;;;;;;;0.37;97.30;92749.81;5044989;28;20241;-75
2024/01/09 03:45:36;;;;;;;12.17;11.37;;;;;;;0.27;97.91;92739.22;5042061;28;20186;-76
2024/01/09 03:48:01;;;;;;;12.57;11.67;;;;;;;0.26;97.89;92732.53;5041486;28;20233;-75
2024/01/09 03:50:26;;;;;;;13.00;12.10;;;;;;;0.30;97.77;92743.16;5035563;28;20191;-76
2024/01/09 03:52:52;;;;;;;12.20;11.40;;;;;;;0.41;97.38;92753.50;5047564;28;20719;-76
2024/01/09 03:55:17;;;;;;;12.50;11.70;;;;;;;0.23;97.75;92758.63;5042823;28;20193;-75
2024/01/09 03:57:43;;;;;;;12.47;11.50;;;;;;;0.31;98.41;92739.59;5048159;28;20221;-75
2024/01/09 04:00:08;;;;;;;13.73;12.83;;;;;;;0.53;97.76;92749.22;5049604;28;20218;-75
2024/01/09 04:02:34;;;;;;;15.47;14.27;;;;;;;0.27;97.55;92762.34;5039899;28;20228;-75
2024/01/09 04:05:00;;;;;;;14.27;13.27;;;;;;;0.16;98.19;92768.16;5053372;28;20189;-75
2024/01/09 04:07:25;;;;;;;14.03;13.13;;;;;;;0.29;97.51;92777.53;5052039;28;20221;-75
2024/01/09 04:09:50;;;;;;;13.70;12.50;;;;;;;0.16;98.58;92788.69;5038929;28;20187;-76
2024/01/09 04:12:16;;;;;;;13.23;12.23;;;;;;;0.41;97.79;92786.88;5050898;28;20281;-75
2024/01/09 04:14:41;;;;;;;14.07;13.07;;;;;;;0.49;97.54;92784.03;5047481;28;20182;-76
2024/01/09 04:17:06;;;;;;;12.33;11.37;;;;;;;0.10;98.80;92794.69;5051160;28;20226;-76
2024/01/09 04:19:32;;;;;;;13.70;12.60;;;;;;;0.11;97.46;92805.75;5045014;28;20214;-75
2024/01/09 04:21:58;;;;;;;13.37;12.47;;;;;;;0.00;98.06;92784.88;5052524;28;20225;-75
2024/01/09 04:24:24;;;;;;;12.40;11.60;;;;;;;-0.02;97.98;92770.72;5052684;28;20198;-75
2024/01/09 04:26:49;;;;;;;13.20;12.30;;;;;;;0.01;97.80;92785.69;5055570;28;20252;-76
2024/01/09 04:29:14;;;;;;;12.70;11.70;;;;;;;0.08;98.16;92799.22;5065197;28;20193;-76
2024/01/09 04:31:40;;;;;;;14.43;13.37;;;;;;;0.21;98.03;92804.25;5070386;28;20186;-76
2024/01/09 04:34:05;;;;;;;12.33;11.53;;;;;;;-0.31;99.08;92735.41;5069134;28;20245;-75
2024/01/09 04:36:30;;;;;;;14.17;13.07;;;;;;;0.21;97.98;92811.16;5071594;28;20177;-76
2024/01/09 04:38:59;;;;;;;13.33;12.43;;;;;;;0.22;98.36;92798.13;5072265;28;20213;-76
2024/01/09 04:41:25;;;;;;;13.73;12.83;;;;;;;0.31;97.25;92817.41;5070590;28;20196;-76
2024/01/09 04:43:50;;;;;;;12.90;12.00;;;;;;;0.24;97.24;92824.38;5072183;28;20177;-77
2024/01/09 04:46:15;;;;;;;13.07;12.27;;;;;;;0.08;96.84;92795.91;5072311;28;20200;-76
2024/01/09 04:48:41;;;;;;;12.23;11.43;;;;;;;0.32;96.51;92826.66;5063253;28;20222;-77
2024/01/09 04:51:06;;;;;;;13.60;12.80;;;;;;;0.30;95.96;92830.44;5066261;28;20189;-75
2024/01/09 04:53:31;;;;;;;12.13;11.33;;;;;;;0.24;95.99;92832.06;5070039;28;20217;-74
2024/01/09 04:55:57;;;;;;;12.47;11.57;;;;;;;0.19;96.44;92849.09;5069085;28;21702;-77
2024/01/09 04:58:22;;;;;;;12.80;11.90;;;;;;;0.41;96.28;92842.56;5054727;28;20218;-74
2024/01/09 05:00:47;;;;;;;12.07;11.37;;;;;;;0.00;95.66;92789.25;5042914;28;20190;-77
2024/01/09 05:03:13;;;;;;;14.67;13.50;;;;;;;-0.06;97.06;92833.69;5049368;28;20218;-74
2024/01/09 05:05:38;;;;;;;12.13;11.37;;;;;;;-0.15;95.57;92837.50;5049546;28;20201;-77
2024/01/09 05:08:04;;;;;;;13.23;12.40;;;;;;;0.38;95.48;92843.00;5048698;28;20225;-74
2024/01/09 05:10:31;;;;;;;13.40;12.50;;;;;;;0.38;95.29;92840.44;5049435;28;20273;-73
2024/01/09 05:12:56;;;;;;;14.37;13.37;;;;;;;-0.10;96.74;92827.41;5063430;28;20280;-74
2024/01/09 05:15:22;;;;;;;13.80;12.90;;;;;;;0.09;96.52;92815.41;5069853;28;20197;-73
2024/01/09 05:17:47;;;;;;;20.10;18.10;;;;;;;0.04;97.07;92821.19;5074195;28;20304;-74
2024/01/09 05:20:12;;;;;;;12.73;11.93;;;;;;;0.22;95.92;92803.25;5069453;28;20208;-76
2024/01/09 05:22:38;;;;;;;13.27;12.47;;;;;;;0.53;94.80;92830.63;5059856;28;20293;-77
2024/01/09 05:25:04;;;;;;;11.37;10.80;;;;;;;0.64;94.08;92835.81;5036610;28;20216;-77
2024/01/09 05:27:30;;;;;;;12.93;11.87;;;;;;;0.56;93.45;92827.63;5051680;28;20226;-76
2024/01/09 05:29:55;;;;;;;12.57;11.37;;;;;;;0.45;93.07;92823.19;5044379;28;20853;-76
2024/01/09 05:32:20;;;;;;;11.90;11.10;;;;;;;-0.12;93.21;92839.66;5049481;28;20225;-75
2024/01/09 05:34:46;;;;;;;11.47;10.73;;;;;;;0.19;94.15;92834.47;5036508;28;20187;-76
2024/01/09 05:37:11;;;;;;;13.63;12.53;;;;;;;0.16;91.44;92834.13;5040452;28;20241;-75
2024/01/09 05:39:36;;;;;;;12.20;11.47;;;;;;;0.49;92.82;92855.94;5048757;28;20228;-76
2024/01/09 05:42:03;;;;;;;11.43;10.57;;;;;;;0.35;90.54;92853.69;5047558;28;20256;-76
2024/01/09 05:44:28;;;;;;;12.53;11.33;;;;;;;0.63;91.77;92841.97;5048661;28;20171;-76
2024/01/09 05:46:53;;;;;;;10.87;10.17;;;;;;;0.47;90.64;92846.88;5053647;28;20237;-75
2024/01/09 05:49:19;;;;;;;13.60;12.57;;;;;;;0.55;90.62;92864.56;5067871;28;20189;-76
2024/01/09 05:51:44;;;;;;;14.17;13.10;;;;;;;0.62;89.91;92873.81;5070154;28;20225;-75
2024/01/09 05:54:10;;;;;;;11.67;10.97;;;;;;;0.65;89.02;92878.53;5063682;28;20194;-75
2024/01/09 05:56:36;;;;;;;11.43;10.80;;;;;;;0.58;88.08;92880.34;5061465;28;20174;-75
2024/01/09 05:59:02;;;;;;;11.50;10.90;;;;;;;0.61;88.25;92884.28;5045714;28;20209;-75
2024/01/09 06:01:28;;;;;;;11.93;11.33;;;;;;;0.71;89.86;92895.66;5081954;28;20186;-75
2024/01/09 06:03:53;;;;;;;12.07;11.27;;;;;;;0.72;90.44;92907.47;5062403;28;20898;-75
2024/01/09 06:06:18;;;;;;;11.83;11.13;;;;;;;0.55;89.20;92901.31;5070877;28;20225;-75
2024/01/09 06:08:44;;;;;;;15.03;14.10;;;;;;;-0.18;91.76;92922.59;5045815;28;20218;-75
2024/01/09 06:11:10;;;;;;;11.73;11.13;;;;;;;-0.23;91.31;92922.41;5047185;28;20181;-75
2024/01/09 06:13:35;;;;;;;11.47;10.87;;;;;;;0.18;91.65;92935.59;5048316;28;20226;-75
2024/01/09 06:16:00;;;;;;;11.70;10.87;;;;;;;0.49;90.92;92943.25;5040350;28;20210;-75
2024/01/09 06:18:26;;;;;;;10.80;10.20;;;;;;;0.65;90.42;92957.34;5065704;28;20224;-76
2024/01/09 06:20:51;;;;;;;12.10;11.20;;;;;;;0.60;92.02;92945.16;5069151;28;20224;-75
2024/01/09 06:23:17;;;;;;;12.10;11.40;;;;;;;0.81;89.90;92962.72;5068200;28;20251;-75
2024/01/09 06:25:42;;;;;;;10.60;10.00;;;;;;;0.91;88.98;92981.03;5066127;28;20208;-75
2024/01/09 06:28:07;;;;;;;11.70;11.00;;;;;;;0.79;89.74;92969.09;5058823;28;20285;-75
2024/01/09 06:30:34;;;;;;;12.23;11.60;;;;;;;0.97;87.49;92999.97;5070494;28;20188;-75
2024/01/09 06:32:59;;;;;;;11.43;10.83;;;;;;;1.08;87.46;93014.69;5069660;28;20217;-75
2024/01/09 06:35:25;;;;;;;10.50;9.80;;;;;;;0.86;88.03;93008.34;5062356;28;20191;-75
2024/01/09 06:37:50;;;;;;;11.67;10.97;;;;;;;0.57;88.31;93022.63;5063608;28;20232;-76
2024/01/09 06:40:19;;;;;;;11.13;10.53;;;;;;;0.77;89.72;93033.53;5069947;28;20189;-75
2024/01/09 06:42:45;;;;;;;12.43;11.57;;;;;;;0.92;89.58;93043.53;5063287;28;20240;-76
2024/01/09 06:45:12;;;;;;;12.30;11.20;;;;;;;0.77;90.47;93045.59;5068396;28;20181;-76
2024/01/09 06:47:37;;;;;;;12.60;11.90;;;;;;;0.82;89.77;93031.13;5059039;28;20229;-75
2024/01/09 06:50:03;;;;;;;10.77;10.17;;;;;;;0.36;87.45;93024.72;5039451;28;20214;-76
2024/01/09 06:52:29;;;;;;;11.30;10.70;;;;;;;0.08;87.13;93040.47;5048937;28;20221;-76
2024/01/09 06:54:54;;;;;;;11.23;10.63;;;;;;;-0.05;88.52;93061.06;5049878;28;20205;-75
2024/01/09 06:57:20;;;;;;;12.33;11.63;;;;;;;0.06;88.49;93063.00;5055373;28;20213;-74
2024/01/09 06:59:45;;;;;;;12.73;11.73;;;;;;;0.17;86.79;93076.97;5081377;28;20281;-74
2024/01/09 07:02:11;;;;;;;12.13;11.53;;;;;;;0.40;86.34;93085.75;5066010;28;20225;-74
2024/01/09 07:04:36;;;;;;;11.97;11.27;;;;;;;0.27;85.42;93080.66;5068246;28;20178;-74
2024/01/09 07:07:01;;;;;;;13.27;12.20;;;;;;;0.22;86.96;93088.19;5080284;28;20252;-73
2024/01/09 07:09:27;;;;;;;12.57;11.73;;;;;;;0.01;88.24;93080.78;5067575;28;20177;-73
2024/01/09 07:11:52;;;;;;;12.93;12.20;;;;;;;0.17;88.77;93082.91;5060881;28;20316;-73
2024/01/09 07:14:17;;;;;;;13.87;13.07;;;;;;;0.36;88.69;93096.63;5060856;28;20202;-75
2024/01/09 07:16:43;;;;;;;13.00;12.20;;;;;;;0.40;86.26;93098.59;5053007;28;20288;-74
2024/01/09 07:19:08;;;;;;;12.23;11.43;;;;;;;0.14;88.01;93082.50;5065491;28;20240;-74
2024/01/09 07:21:33;;;;;;;12.70;11.90;;;;;;;0.22;87.45;93080.47;5065677;28;20223;-75
2024/01/09 07:23:59;;;;;;;12.80;12.00;;;;;;;0.15;87.73;93102.84;5066216;28;20223;-74
2024/01/09 07:26:24;;;;;;;13.23;12.13;;;;;;;0.35;87.08;93088.13;5063112;28;20189;-76
2024/01/09 07:28:49;;;;;;;13.30;12.50;;;;;;;-0.04;87.99;93070.34;5032906;28;20191;-74
2024/01/09 07:31:15;;;;;;;12.60;11.80;;;;;;;0.13;88.46;93094.53;5039320;28;21160;-75
2024/01/09 07:33:40;;;;;;;11.73;11.03;;;;;;;0.19;88.69;93111.69;5039452;28;20257;-75
2024/01/09 07:36:06;;;;;;;13.37;12.37;;;;;;;0.26;88.34;93104.75;5045997;28;20181;-75
2024/01/09 07:38:31;;;;;;;12.83;12.03;;;;;;;0.36;88.33;93112.03;5056562;28;20217;-74
2024/01/09 07:40:56;;;;;;;12.80;12.00;;;;;;;-0.14;87.79;93090.50;5066157;28;20177;-75
2024/01/09 07:43:22;;;;;;;12.80;11.90;;;;;;;-0.20;88.60;93111.81;5065838;28;20225;-75
2024/01/09 07:45:47;;;;;;;13.33;12.40;;;;;;;-0.14;87.72;93116.94;5063208;28;20227;-74
2024/01/09 07:48:13;;;;;;;12.90;12.10;;;;;;;0.00;87.87;93115.13;5064352;28;20224;-74
2024/01/09 07:50:38;;;;;;;13.03;12.20;;;;;;;-0.29;89.58;93118.16;5068447;28;20227;-74
2024/01/09 07:53:04;;;;;;;13.57;12.67;;;;;;;-0.21;89.68;93116.19;5070270;28;20224;-74
2024/01/09 07:55:29;;;;;;;13.17;12.20;;;;;;;-0.29;89.36;93115.59;5066900;28;20197;-74
2024/01/09 07:57:54;;;;;;;13.43;12.57;;;;;;;-0.75;90.40;93117.44;5065384;28;20232;-75
2024/01/09 08:00:20;;;;;;;13.97;13.07;;;;;;;-0.44;89.57;93122.72;5063525;28;20184;-74
2024/01/09 08:02:45;;;;;;;15.13;13.93;;;;;;;-0.43;89.32;93111.47;5060922;28;20336;-74
2024/01/09 08:05:11;;;;;;;15.77;14.77;;;;;;;-0.54;89.24;93084.69;5065414;28;20194;-73
2024/01/09 08:07:36;;;;;;;14.63;13.53;;;;;;;0.09;87.57;93131.88;5067418;28;21142;-75
2024/01/09 08:10:02;;;;;;;14.37;13.30;;;;;;;0.05;87.40;93140.97;5065136;28;20759;-74
2024/01/09 08:12:27;;;;;;;13.87;12.77;;;;;;;-0.03;88.53;93138.63;5071699;28;20232;-75
2024/01/09 08:14:53;;;;;;;15.60;14.03;;;;;;;-0.23;89.54;93137.88;5064359;28;20191;-74
2024/01/09 08:17:19;;;;;;;15.50;13.93;;;;;;;-0.01;88.73;93149.47;5065131;28;20222;-75
2024/01/09 08:19:45;;;;;;;13.20;12.10;;;;;;;-0.29;88.52;93134.34;5067549;28;20212;-73
2024/01/09 08:22:10;;;;;;;13.93;12.83;;;;;;;-0.42;89.57;93156.66;5065304;28;20236;-75
2024/01/09 08:24:36;;;;;;;14.83;13.70;;;;;;;-0.49;91.21;93154.09;5063591;28;20211;-74
2024/01/09 08:27:02;;;;;;;14.80;13.80;;;;;;;-0.52;89.56;93151.13;5058432;28;20221;-74
2024/01/09 08:29:28;;;;;;;14.73;13.67;;;;;;;-0.81;89.54;93125.91;5066725;28;20189;-78
2024/01/09 08:31:53;;;;;;;14.40;13.30;;;;;;;-0.38;90.53;93156.06;5066177;28;20279;-73
2024/01/09 08:34:19;;;;;;;13.13;12.13;;;;;;;-0.36;91.43;93161.00;5058083;28;20245;-74
2024/01/09 08:36:46;;;;;;;14.87;13.90;;;;;;;-0.34;89.32;93177.75;5066062;28;20252;-75
2024/01/09 08:39:14;;;;;;;13.97;12.80;;;;;;;-0.18;88.90;93168.84;5056885;28;20213;-75
2024/01/09 08:41:41;;;;;;;15.37;14.13;;;;;;;-0.26;88.11;93174.19;5062409;28;20190;-75
2024/01/09 08:44:07;;;;;;;14.63;13.60;;;;;;;-0.40;87.72;93172.63;5070529;28;20190;-75
2024/01/09 08:46:32;;;;;;;15.27;14.27;;;;;;;-0.35;88.34;93147.19;5069539;28;20216;-75
2024/01/09 08:48:58;;;;;;;14.40;13.10;;;;;;;-0.51;89.26;93175.78;5065734;28;20193;-75
2024/01/09 08:51:23;;;;;;;14.93;13.83;;;;;;;-0.68;89.52;93146.41;5064691;28;20197;-75
2024/01/09 08:53:49;;;;;;;16.20;15.07;;;;;;;-1.06;90.63;93155.66;5063929;28;20240;-74
2024/01/09 08:56:14;;;;;;;15.27;13.97;;;;;;;-1.03;91.97;93152.72;5070030;28;20201;-75
2024/01/09 08:58:40;;;;;;;16.03;14.73;;;;;;;-0.29;90.25;93154.88;5038263;28;20230;-74
2024/01/09 09:01:05;;;;;;;15.07;13.83;;;;;;;-0.23;88.66;93155.81;5048637;28;20216;-75
2024/01/09 09:03:30;;;;;;;13.53;12.47;;;;;;;-0.09;88.42;93167.66;5045358;28;20217;-74
2024/01/09 09:05:59;;;;;;;14.87;13.57;;;;;;;-0.29;87.60;93177.16;5038697;28;20198;-73
2024/01/09 09:08:25;;;;;;;15.30;14.00;;;;;;;-0.49;87.40;93137.91;5049653;28;20229;-74
2024/01/09 09:10:50;;;;;;;16.30;15.00;;;;;;;-0.69;89.70;93183.28;5047753;28;20197;-76
2024/01/09 09:13:16;;;;;;;14.97;13.80;;;;;;;-0.40;90.36;93180.31;5043421;28;20253;-74
2024/01/09 09:15:41;;;;;;;15.37;14.03;;;;;;;-0.07;88.30;93183.63;5050318;28;20198;-76
2024/01/09 09:18:06;;;;;;;15.53;14.33;;;;;;;0.10;87.15;93179.66;5048688;28;20218;-75
2024/01/09 09:20:32;;;;;;;15.47;14.03;;;;;;;-0.02;86.57;93176.13;5053082;28;20465;-74
2024/01/09 09:22:58;;;;;;;15.00;13.80;;;;;;;0.16;86.74;93178.06;5039686;28;20234;-72
2024/01/09 09:25:23;;;;;;;16.00;14.80;;;;;;;-0.13;87.95;93171.59;5048601;28;20170;-74
2024/01/09 09:27:49;;;;;;;14.57;13.57;;;;;;;-0.11;87.48;93180.69;5040629;28;20767;-73
2024/01/09 09:30:14;;;;;;;15.00;13.77;;;;;;;0.12;86.51;93185.38;5037899;28;20190;-74
2024/01/09 09:32:40;;;;;;;14.43;13.33;;;;;;;-0.28;86.19;93133.34;5048823;28;20214;-75
2024/01/09 09:35:05;;;;;;;14.40;13.20;;;;;;;0.03;86.30;93154.00;5045972;28;20510;-73
2024/01/09 09:37:30;;;;;;;15.17;14.00;;;;;;;0.57;84.24;93163.88;5054350;28;20221;-72
2024/01/09 09:39:56;;;;;;;14.57;13.37;;;;;;;0.40;83.78;93172.25;5065746;28;20305;-72
2024/01/09 09:42:24;;;;;;;14.73;13.40;;;;;;;-0.19;86.05;93172.41;5058693;28;20333;-72
2024/01/09 09:44:51;;;;;;;13.43;12.43;;;;;;;-0.85;87.85;93163.97;5066870;28;20253;-74
2024/01/09 09:47:19;;;;;;;13.23;12.23;;;;;;;-0.69;87.79;93168.69;5069098;28;20221;-73
2024/01/09 09:49:45;;;;;;;15.10;13.83;;;;;;;-0.77;87.90;93171.47;5064293;28;20194;-75
2024/01/09 09:52:11;;;;;;;13.67;12.67;;;;;;;-0.82;87.21;93167.88;5054322;28;20393;-75
2024/01/09 09:54:38;;;;;;;13.33;12.40;;;;;;;-0.82;87.67;93170.44;5046277;28;20194;-73
2024/01/09 09:57:04;;;;;;;13.77;12.67;;;;;;;-0.72;88.86;93165.75;5048644;28;20261;-74
2024/01/09 09:59:30;;;;;;;13.47;12.57;;;;;;;-0.83;89.04;93143.25;5049812;28;20213;-74
2024/01/09 10:01:56;;;;;;;13.10;12.07;;;;;;;-0.67;89.53;93171.06;5065239;28;20282;-74
2024/01/09 10:04:48;;;;;;;12.43;11.53;;;;;;;0.02;85.02;93171.41;5064788;28;21208;-74
2024/01/09 10:07:20;;;;;;;13.60;12.50;;;;;;;-0.20;85.41;93168.25;5047548;28;20218;-75
2024/01/09 10:09:51;;;;;;;11.77;11.07;;;;;;;-0.64;85.84;93161.19;5050045;28;20186;-74
2024/01/09 10:12:19;;;;;;;13.70;12.77;;;;;;;-0.75;86.56;93174.63;5043873;28;20232;-75
2024/01/09 10:15:04;;;;;;;12.73;12.03;;;;;;;-0.54;85.82;93169.28;5050216;28;20256;-74
2024/01/09 10:17:30;;;;;;;11.33;10.63;;;;;;;-0.70;84.05;93166.34;5047136;28;20222;-77
2024/01/09 10:19:55;;;;;;;13.67;12.67;;;;;;;-0.56;85.85;93144.84;5047833;28;20217;-75
2024/01/09 10:22:20;;;;;;;13.13;12.37;;;;;;;-0.64;85.95;93155.28;5048896;28;20220;-75
2024/01/09 10:24:46;;;;;;;12.43;11.67;;;;;;;-0.68;83.95;93161.78;5047321;28;20198;-75
2024/01/09 10:27:11;;;;;;;13.07;12.27;;;;;;;-0.75;84.51;93184.06;5039914;28;20241;-76
2024/01/09 10:29:43;;;;;;;12.93;12.03;;;;;;;-1.06;84.90;93176.94;5047526;28;20194;-76
2024/01/09 10:32:13;;;;;;;17.73;15.93;;;;;;;-0.81;85.96;93169.47;5055921;28;20229;-75
2024/01/09 10:34:38;;;;;;;13.00;12.00;;;;;;;-0.57;86.56;93191.97;5065343;28;20201;-76
2024/01/09 10:37:10;;;;;;;12.67;11.77;;;;;;;-1.05;84.81;93191.31;5066272;28;20229;-76
2024/01/09 10:39:35;;;;;;;13.13;12.37;;;;;;;-1.01;85.01;93192.50;5069392;28;20201;-77
2024/01/09 10:42:11;;;;;;;12.20;11.33;;;;;;;-1.40;86.05;93197.53;5062040;28;20281;-76
2024/01/09 10:44:40;;;;;;;13.53;12.53;;;;;;;-1.39;86.05;93193.19;5047617;28;20190;-76
2024/01/09 10:47:09;;;;;;;13.80;12.93;;;;;;;-1.24;85.44;93206.63;5041347;28;20222;-77
2024/01/09 10:49:38;;;;;;;12.87;11.97;;;;;;;-1.00;84.62;93198.44;5046854;28;20191;-76
2024/01/09 10:52:06;;;;;;;13.57;12.40;;;;;;;-1.11;85.75;93211.81;5052520;28;20236;-75
2024/01/09 10:54:32;;;;;;;13.80;12.80;;;;;;;-1.23;85.70;93206.44;5069112;28;20185;-76
2024/01/09 10:56:59;;;;;;;13.07;12.07;;;;;;;-1.01;85.83;93215.56;5055278;28;20233;-75
2024/01/09 10:59:26;;;;;;;14.63;13.53;;;;;;;-1.08;86.09;93229.34;5045354;28;20209;-76
2024/01/09 11:01:52;;;;;;;13.77;12.67;;;;;;;-1.22;86.38;93227.72;5038561;28;21171;-75
2024/01/09 11:04:17;;;;;;;14.23;13.33;;;;;;;-1.51;86.91;93228.03;5046832;28;20200;-75
2024/01/09 11:06:44;;;;;;;13.80;12.63;;;;;;;-1.30;87.67;93225.34;5049233;28;20245;-75
2024/01/09 11:09:11;;;;;;;13.70;12.70;;;;;;;-1.44;84.97;93232.19;5064695;28;20166;-75
2024/01/09 11:11:38;;;;;;;12.97;11.93;;;;;;;-1.51;86.15;93238.25;5066329;28;20217;-75
2024/01/09 11:14:08;;;;;;;15.23;13.97;;;;;;;-1.48;87.50;93243.00;5068052;28;20177;-75
2024/01/09 11:16:37;;;;;;;14.70;13.63;;;;;;;-1.79;88.72;93246.78;5066521;28;20189;-75